createdAt,value
2018-03-01T00:01:47.751Z,14.56
2018-03-01T00:04:14.840Z,14.56
2018-03-01T00:06:42.087Z,14.56
2018-03-01T00:09:09.134Z,14.50
2018-03-01T00:11:36.186Z,14.50
2018-03-01T00:14:03.230Z,14.50
2018-03-01T00:16:30.282Z,14.63
2018-03-01T00:18:57.463Z,14.63
2018-03-01T00:21:24.515Z,14.63
2018-03-01T00:23:51.566Z,14.63
2018-03-01T00:26:18.622Z,14.63
2018-03-01T00:28:45.673Z,14.63
2018-03-01T00:31:13.119Z,14.56
2018-03-01T00:33:40.168Z,14.56
2018-03-01T00:36:07.214Z,14.56
2018-03-01T00:38:34.270Z,14.56
2018-03-01T00:41:01.314Z,14.50
2018-03-01T00:43:28.587Z,14.50
2018-03-01T00:45:55.640Z,14.50
2018-03-01T00:48:22.690Z,14.56
2018-03-01T00:50:49.734Z,14.56
2018-03-01T00:53:16.838Z,14.50
2018-03-01T00:55:44.098Z,14.50
2018-03-01T00:58:11.150Z,14.50
2018-03-01T01:00:39.170Z,14.50
2018-03-01T01:03:06.223Z,14.50
2018-03-01T01:05:33.273Z,14.50
2018-03-01T01:08:00.369Z,14.44
2018-03-01T01:10:27.409Z,14.44
2018-03-01T01:12:54.463Z,14.44
2018-03-01T01:15:21.507Z,14.44
2018-03-01T01:17:48.553Z,14.44
2018-03-01T01:20:15.810Z,14.44
2018-03-01T01:22:42.858Z,14.38
2018-03-01T01:25:09.914Z,14.38
2018-03-01T01:27:36.961Z,14.44
2018-03-01T01:30:04.015Z,14.38
2018-03-01T01:32:31.310Z,14.38
2018-03-01T01:34:58.362Z,14.38
2018-03-01T01:37:25.414Z,14.31
2018-03-01T01:39:52.467Z,14.31
2018-03-01T01:42:19.521Z,14.31
2018-03-01T01:44:46.710Z,14.31
2018-03-01T01:47:13.754Z,14.31
2018-03-01T01:49:40.807Z,14.31
2018-03-01T01:52:07.869Z,14.31
2018-03-01T01:54:34.920Z,14.25
2018-03-01T01:57:02.006Z,14.25
2018-03-01T01:59:29.055Z,14.25
2018-03-01T02:01:56.102Z,14.25
2018-03-01T02:04:23.150Z,14.19
2018-03-01T02:06:50.194Z,14.19
2018-03-01T02:09:17.495Z,14.19
2018-03-01T02:11:44.545Z,14.19
2018-03-01T02:14:11.590Z,14.19
2018-03-01T02:16:38.641Z,14.19
2018-03-01T02:19:05.694Z,14.19
2018-03-01T02:21:33.017Z,14.19
2018-03-01T02:24:00.069Z,14.13
2018-03-01T02:26:27.118Z,14.13
2018-03-01T02:28:54.175Z,14.13
2018-03-01T02:31:21.223Z,14.13
2018-03-01T02:33:48.423Z,14.06
2018-03-01T02:36:15.474Z,14.06
2018-03-01T02:38:42.522Z,14.13
2018-03-01T02:41:09.567Z,14.06
2018-03-01T02:43:36.614Z,14.13
2018-03-01T02:46:03.702Z,14.06
2018-03-01T02:48:30.759Z,14.06
2018-03-01T02:50:57.812Z,14.06
2018-03-01T02:53:24.863Z,14.06
2018-03-01T02:55:51.912Z,14.00
2018-03-01T02:58:19.118Z,14.00
2018-03-01T03:00:46.162Z,14.00
2018-03-01T03:03:13.212Z,14.00
2018-03-01T03:05:40.258Z,14.00
2018-03-01T03:08:07.317Z,14.00
2018-03-01T03:10:34.722Z,14.00
2018-03-01T03:13:01.770Z,14.00
2018-03-01T03:15:28.815Z,14.00
2018-03-01T03:17:55.866Z,13.94
2018-03-01T03:20:22.913Z,13.94
2018-03-01T03:22:50.438Z,13.94
2018-03-01T03:25:17.482Z,13.94
2018-03-01T03:27:44.532Z,13.94
2018-03-01T03:30:11.589Z,13.88
2018-03-01T03:32:38.634Z,13.88
2018-03-01T03:35:05.722Z,13.88
2018-03-01T03:37:32.771Z,13.88
2018-03-01T03:39:59.819Z,13.88
2018-03-01T03:42:26.873Z,13.88
2018-03-01T03:44:53.918Z,13.88
2018-03-01T03:47:21.238Z,13.88
2018-03-01T03:49:48.286Z,13.81
2018-03-01T03:52:15.439Z,13.81
2018-03-01T03:54:42.486Z,13.81
2018-03-01T03:57:09.535Z,13.81
2018-03-01T03:59:36.608Z,13.81
2018-03-01T04:02:03.656Z,13.75
2018-03-01T04:04:30.704Z,13.81
2018-03-01T04:06:57.752Z,13.75
2018-03-01T04:09:24.800Z,13.75
2018-03-01T04:11:51.992Z,13.75
2018-03-01T04:14:19.048Z,13.75
2018-03-01T04:16:46.107Z,13.75
2018-03-01T04:19:13.158Z,13.75
2018-03-01T04:21:40.215Z,13.75
2018-03-01T04:24:07.312Z,13.69
2018-03-01T04:26:34.358Z,13.69
2018-03-01T04:29:01.406Z,13.69
2018-03-01T04:31:28.462Z,13.69
2018-03-01T04:33:55.513Z,13.69
2018-03-01T04:36:22.741Z,13.69
2018-03-01T04:38:49.790Z,13.69
2018-03-01T04:41:16.831Z,13.69
2018-03-01T04:43:43.881Z,13.69
2018-03-01T04:46:10.928Z,13.69
2018-03-01T04:48:38.129Z,13.62
2018-03-01T04:51:05.181Z,13.62
2018-03-01T04:53:32.229Z,13.56
2018-03-01T04:55:59.282Z,13.56
2018-03-01T04:58:26.330Z,13.56
2018-03-01T05:00:53.413Z,13.62
2018-03-01T05:03:20.463Z,13.69
2018-03-01T05:05:47.510Z,13.75
2018-03-01T05:08:14.562Z,13.81
2018-03-01T05:10:41.610Z,13.94
2018-03-01T05:13:08.932Z,14.00
2018-03-01T05:15:35.978Z,14.06
2018-03-01T05:18:03.026Z,14.06
2018-03-01T05:20:30.074Z,14.13
2018-03-01T05:22:57.117Z,14.13
2018-03-01T05:25:24.334Z,14.19
2018-03-01T05:27:51.382Z,14.25
2018-03-01T05:30:18.442Z,14.31
2018-03-01T05:32:45.487Z,14.69
2018-03-01T05:35:12.531Z,14.56
2018-03-01T05:37:40.035Z,14.50
2018-03-01T05:40:07.083Z,14.69
2018-03-01T05:42:34.131Z,14.87
2018-03-01T05:45:01.179Z,15.06
2018-03-01T05:47:28.226Z,15.19
2018-03-01T05:49:55.546Z,15.31
2018-03-01T05:52:22.599Z,15.44
2018-03-01T05:54:49.647Z,15.31
2018-03-01T05:57:16.693Z,15.19
2018-03-01T05:59:43.746Z,15.19
2018-03-01T06:02:10.826Z,15.19
2018-03-01T06:04:37.878Z,15.19
2018-03-01T06:07:05.027Z,15.31
2018-03-01T06:09:32.086Z,15.81
2018-03-01T06:11:59.134Z,15.38
2018-03-01T06:14:26.442Z,15.44
2018-03-01T06:16:53.499Z,15.50
2018-03-01T06:19:20.551Z,15.50
2018-03-01T06:21:47.602Z,15.44
2018-03-01T06:24:14.655Z,15.44
2018-03-01T06:26:41.859Z,15.31
2018-03-01T06:29:08.912Z,15.19
2018-03-01T06:31:35.962Z,15.25
2018-03-01T06:34:03.011Z,15.19
2018-03-01T06:36:30.059Z,15.06
2018-03-01T06:38:57.306Z,15.13
2018-03-01T06:41:24.355Z,14.94
2018-03-01T06:43:51.406Z,14.87
2018-03-01T06:46:18.450Z,14.81
2018-03-01T06:48:45.500Z,14.75
2018-03-01T06:51:12.598Z,14.69
2018-03-01T06:53:39.660Z,14.63
2018-03-01T06:56:06.711Z,14.50
2018-03-01T06:58:33.759Z,14.44
2018-03-01T07:01:00.806Z,14.38
2018-03-01T07:03:27.881Z,14.31
2018-03-01T07:05:54.939Z,14.31
2018-03-01T07:08:21.992Z,14.25
2018-03-01T07:10:49.045Z,14.19
2018-03-01T07:13:16.110Z,14.19
2018-03-01T07:15:43.274Z,14.13
2018-03-01T07:18:10.318Z,14.13
2018-03-01T07:20:37.362Z,14.06
2018-03-01T07:23:04.418Z,13.94
2018-03-01T07:25:31.482Z,13.94
2018-03-01T07:27:58.554Z,13.88
2018-03-01T07:30:25.611Z,13.81
2018-03-01T07:32:52.672Z,13.75
2018-03-01T07:35:19.723Z,13.75
2018-03-01T07:37:46.774Z,13.75
2018-03-01T07:40:14.050Z,13.75
2018-03-01T07:42:41.094Z,13.75
2018-03-01T07:45:08.148Z,13.69
2018-03-01T07:47:35.198Z,13.62
2018-03-01T07:50:02.250Z,13.62
2018-03-01T07:52:29.383Z,13.62
2018-03-01T07:54:56.433Z,13.56
2018-03-01T07:57:23.483Z,13.56
2018-03-01T07:59:50.534Z,13.56
2018-03-01T08:02:17.586Z,13.50
2018-03-01T08:04:44.634Z,13.50
2018-03-01T08:07:11.686Z,13.44
2018-03-01T08:09:38.872Z,13.38
2018-03-01T08:12:05.961Z,13.44
2018-03-01T08:14:33.006Z,13.38
2018-03-01T08:17:00.454Z,13.31
2018-03-01T08:19:27.538Z,13.25
2018-03-01T08:21:54.591Z,13.31
2018-03-01T08:24:21.686Z,13.25
2018-03-01T08:26:48.738Z,13.25
2018-03-01T08:29:15.795Z,13.31
2018-03-01T08:31:42.862Z,13.25
2018-03-01T08:34:09.919Z,13.19
2018-03-01T08:36:37.408Z,13.19
2018-03-01T08:39:04.497Z,13.13
2018-03-01T08:41:31.576Z,13.13
2018-03-01T08:43:58.630Z,13.13
2018-03-01T08:46:25.678Z,13.06
2018-03-01T08:48:53.146Z,13.06
2018-03-01T08:51:20.190Z,13.06
2018-03-01T08:53:47.238Z,13.06
2018-03-01T08:56:14.358Z,13.00
2018-03-01T08:58:41.505Z,13.06
2018-03-01T09:01:08.982Z,13.00
2018-03-01T09:03:36.181Z,13.00
2018-03-01T09:06:03.822Z,13.00
2018-03-01T09:08:30.922Z,12.94
2018-03-01T09:10:57.970Z,12.94
2018-03-01T09:13:25.278Z,12.88
2018-03-01T09:15:52.407Z,12.88
2018-03-01T09:18:19.459Z,12.88
2018-03-01T09:20:46.512Z,12.88
2018-03-01T09:23:13.578Z,12.88
2018-03-01T09:25:40.990Z,12.88
2018-03-01T09:28:08.392Z,12.88
2018-03-01T09:30:35.548Z,12.81
2018-03-01T09:33:02.795Z,12.88
2018-03-01T09:35:30.635Z,12.88
2018-03-01T09:37:57.922Z,12.81
2018-03-01T09:40:27.173Z,12.81
2018-03-01T09:42:56.597Z,12.81
2018-03-01T09:45:26.010Z,12.81
2018-03-01T09:47:54.705Z,12.88
2018-03-01T09:50:21.972Z,12.88
2018-03-01T09:52:49.936Z,12.88
2018-03-01T09:55:17.000Z,12.88
2018-03-01T09:57:44.059Z,12.81
2018-03-01T10:00:11.114Z,12.88
2018-03-01T10:02:38.354Z,12.88
2018-03-01T10:05:05.412Z,12.88
2018-03-01T10:07:32.462Z,12.81
2018-03-01T10:09:59.519Z,12.88
2018-03-01T10:12:30.004Z,12.94
2018-03-01T10:14:57.240Z,12.94
2018-03-01T10:17:24.295Z,12.88
2018-03-01T10:19:51.346Z,12.88
2018-03-01T10:22:18.391Z,12.94
2018-03-01T10:24:45.451Z,12.88
2018-03-01T10:27:12.834Z,12.81
2018-03-01T10:29:45.708Z,12.88
2018-03-01T10:32:12.779Z,12.88
2018-03-01T10:34:39.835Z,12.81
2018-03-01T10:37:06.954Z,12.88
2018-03-01T10:39:33.962Z,12.88
2018-03-01T10:42:01.013Z,12.94
2018-03-01T10:44:28.555Z,12.88
2018-03-01T10:46:55.598Z,12.94
2018-03-01T10:49:22.654Z,12.94
2018-03-01T10:51:49.702Z,12.88
2018-03-01T10:54:16.756Z,12.81
2018-03-01T10:56:43.839Z,12.88
2018-03-01T10:59:10.890Z,12.81
2018-03-01T11:01:37.952Z,12.81
2018-03-01T11:04:04.999Z,12.88
2018-03-01T11:06:32.051Z,12.88
2018-03-01T11:08:59.142Z,12.88
2018-03-01T11:11:26.191Z,12.81
2018-03-01T11:13:53.246Z,12.81
2018-03-01T11:16:20.291Z,12.81
2018-03-01T11:18:47.341Z,12.81
2018-03-01T11:21:14.423Z,12.88
2018-03-01T11:23:41.471Z,12.88
2018-03-01T11:26:08.518Z,12.88
2018-03-01T11:28:35.675Z,12.88
2018-03-01T11:31:02.772Z,12.88
2018-03-01T11:33:30.165Z,12.88
2018-03-01T11:35:57.230Z,12.81
2018-03-01T11:38:24.277Z,12.88
2018-03-01T11:40:51.324Z,12.88
2018-03-01T11:43:18.366Z,12.81
2018-03-01T11:45:45.696Z,12.88
2018-03-01T11:48:12.743Z,12.88
2018-03-01T11:50:39.791Z,12.88
2018-03-01T11:53:06.841Z,12.88
2018-03-01T11:55:33.895Z,12.88
2018-03-01T11:58:01.203Z,12.88
2018-03-01T12:00:28.250Z,12.94
2018-03-01T12:02:55.299Z,12.94
2018-03-01T12:05:22.350Z,12.94
2018-03-01T12:07:49.394Z,12.88
2018-03-01T12:10:16.823Z,12.88
2018-03-01T12:12:43.932Z,12.94
2018-03-01T12:15:11.002Z,12.88
2018-03-01T12:17:38.054Z,12.94
2018-03-01T12:20:05.114Z,12.88
2018-03-01T12:22:32.503Z,12.88
2018-03-01T12:25:00.005Z,12.88
2018-03-01T12:27:27.135Z,12.88
2018-03-01T12:29:55.500Z,12.88
2018-03-01T12:32:22.569Z,12.81
2018-03-01T12:34:49.870Z,12.88
2018-03-01T12:37:16.934Z,12.88
2018-03-01T12:39:43.978Z,12.88
2018-03-01T12:42:11.027Z,12.88
2018-03-01T12:44:38.079Z,12.94
2018-03-01T12:47:05.541Z,12.88
2018-03-01T12:49:32.627Z,12.88
2018-03-01T12:51:59.744Z,12.81
2018-03-01T12:54:26.799Z,12.81
2018-03-01T12:56:53.875Z,12.81
2018-03-01T12:59:21.193Z,12.81
2018-03-01T13:01:48.242Z,12.81
2018-03-01T13:04:16.109Z,12.81
2018-03-01T13:06:43.158Z,12.81
2018-03-01T13:09:10.207Z,12.81
2018-03-01T13:11:37.492Z,12.75
2018-03-01T13:14:04.551Z,12.75
2018-03-01T13:16:31.606Z,12.75
2018-03-01T13:18:58.671Z,12.75
2018-03-01T13:21:25.740Z,12.75
2018-03-01T13:23:52.825Z,12.69
2018-03-01T13:26:19.874Z,12.69
2018-03-01T13:28:46.942Z,12.63
2018-03-01T13:31:16.562Z,12.63
2018-03-01T13:34:02.456Z,12.63
2018-03-01T13:36:29.507Z,12.56
2018-03-01T13:38:56.558Z,12.63
2018-03-01T13:41:25.054Z,12.63
2018-03-01T13:43:52.103Z,12.56
2018-03-01T13:46:20.971Z,12.56
2018-03-01T13:48:48.041Z,12.56
2018-03-01T13:51:15.095Z,12.56
2018-03-01T13:53:42.227Z,12.50
2018-03-01T13:56:09.284Z,12.56
2018-03-01T13:58:36.334Z,12.50
2018-03-01T14:01:03.381Z,12.56
2018-03-01T14:03:30.431Z,12.56
2018-03-01T14:05:58.245Z,12.50
2018-03-01T14:08:25.306Z,12.56
2018-03-01T14:10:52.363Z,12.56
2018-03-01T14:13:25.178Z,12.63
2018-03-01T14:15:52.241Z,12.63
2018-03-01T14:18:34.166Z,12.63
2018-03-01T14:21:07.052Z,12.63
2018-03-01T14:23:38.078Z,12.69
2018-03-01T14:26:10.963Z,12.63
2018-03-01T14:28:39.022Z,12.63
2018-03-01T14:31:06.086Z,12.69
2018-03-01T14:33:33.142Z,12.69
2018-03-01T14:36:00.191Z,12.69
2018-03-01T14:38:27.250Z,12.69
2018-03-01T14:40:54.319Z,12.69
2018-03-01T14:43:21.373Z,12.69
2018-03-01T14:45:48.439Z,12.75
2018-03-01T14:48:15.524Z,12.69
2018-03-01T14:50:42.578Z,12.69
2018-03-01T14:53:09.635Z,12.69
2018-03-01T14:55:36.688Z,12.69
2018-03-01T14:58:03.754Z,12.69
2018-03-01T15:00:30.806Z,12.69
2018-03-01T15:02:59.207Z,12.69
2018-03-01T15:05:26.255Z,12.69
2018-03-01T15:07:53.302Z,12.69
2018-03-01T15:10:20.374Z,12.69
2018-03-01T15:12:47.463Z,12.75
2018-03-01T15:15:14.516Z,12.88
2018-03-01T15:17:41.604Z,13.00
2018-03-01T15:20:08.655Z,13.06
2018-03-01T15:22:35.706Z,13.19
2018-03-01T15:25:02.923Z,13.19
2018-03-01T15:27:29.976Z,13.38
2018-03-01T15:29:57.031Z,13.44
2018-03-01T15:32:24.091Z,13.50
2018-03-01T15:34:51.151Z,13.56
2018-03-01T15:37:18.239Z,13.69
2018-03-01T15:39:45.302Z,13.69
2018-03-01T15:42:12.347Z,13.69
2018-03-01T15:44:39.394Z,13.75
2018-03-01T15:47:06.505Z,13.88
2018-03-01T15:49:33.827Z,14.00
2018-03-01T15:52:00.886Z,14.25
2018-03-01T15:54:27.937Z,14.31
2018-03-01T15:56:54.998Z,14.31
2018-03-01T15:59:22.052Z,14.25
2018-03-01T16:01:49.331Z,14.31
2018-03-01T16:04:16.385Z,14.50
2018-03-01T16:06:43.434Z,14.50
2018-03-01T16:09:10.485Z,14.56
2018-03-01T16:11:37.538Z,13.81
2018-03-01T16:14:05.038Z,13.88
2018-03-01T16:16:32.375Z,14.19
2018-03-01T16:18:59.590Z,14.13
2018-03-01T16:21:26.766Z,14.19
2018-03-01T16:23:53.859Z,14.38
2018-03-01T16:26:20.967Z,14.31
2018-03-01T16:28:48.082Z,14.31
2018-03-01T16:31:15.143Z,14.87
2018-03-01T16:33:42.198Z,14.81
2018-03-01T16:36:09.443Z,14.81
2018-03-01T16:38:36.660Z,15.13
2018-03-01T16:41:03.762Z,15.00
2018-03-01T16:43:30.814Z,14.87
2018-03-01T16:45:58.031Z,14.94
2018-03-01T16:48:25.081Z,14.87
2018-03-01T16:50:52.463Z,15.00
2018-03-01T16:53:19.515Z,14.87
2018-03-01T16:55:46.572Z,15.06
2018-03-01T16:58:13.645Z,15.00
2018-03-01T17:00:40.736Z,15.00
2018-03-01T17:03:08.209Z,15.19
2018-03-01T17:05:35.317Z,15.25
2018-03-01T17:08:02.369Z,15.38
2018-03-01T17:10:30.355Z,15.44
2018-03-01T17:12:57.400Z,15.50
2018-03-01T17:15:24.803Z,15.50
2018-03-01T17:17:52.023Z,15.63
2018-03-01T17:20:19.113Z,15.63
2018-03-01T17:22:47.054Z,15.56
2018-03-01T17:25:15.225Z,15.44
2018-03-01T17:27:44.964Z,15.38
2018-03-01T17:30:13.678Z,15.31
2018-03-01T17:32:42.040Z,15.31
2018-03-01T17:35:14.128Z,15.44
2018-03-01T17:37:42.630Z,15.56
2018-03-01T17:40:13.685Z,15.56
2018-03-01T17:42:41.560Z,15.69
2018-03-01T17:45:09.983Z,15.69
2018-03-01T17:47:37.401Z,16.06
2018-03-01T17:50:06.011Z,15.94
2018-03-01T17:52:33.074Z,15.81
2018-03-01T17:55:00.811Z,15.81
2018-03-01T17:57:28.059Z,15.88
2018-03-01T17:59:55.111Z,15.94
2018-03-01T18:02:22.864Z,16.19
2018-03-01T18:04:50.114Z,16.12
2018-03-01T18:07:19.008Z,16.00
2018-03-01T18:09:46.712Z,15.81
2018-03-01T18:12:15.607Z,15.94
2018-03-01T18:14:44.190Z,16.00
2018-03-01T18:17:11.874Z,16.00
2018-03-01T18:19:40.674Z,16.25
2018-03-01T18:22:10.145Z,16.94
2018-03-01T18:24:41.383Z,16.87
2018-03-01T18:27:11.782Z,16.81
2018-03-01T18:29:41.761Z,16.69
2018-03-01T18:32:09.494Z,16.81
2018-03-01T18:34:36.652Z,16.69
2018-03-01T18:37:04.059Z,16.62
2018-03-01T18:39:31.112Z,16.62
2018-03-01T18:41:58.192Z,16.75
2018-03-01T18:44:25.317Z,16.56
2018-03-01T18:46:52.391Z,16.75
2018-03-01T18:49:20.861Z,16.56
2018-03-01T18:51:48.221Z,16.56
2018-03-01T18:54:15.319Z,16.50
2018-03-01T18:56:43.150Z,16.56
2018-03-01T18:59:12.245Z,16.56
2018-03-01T19:01:39.945Z,16.50
2018-03-01T19:04:08.552Z,16.75
2018-03-01T19:06:35.702Z,16.62
2018-03-01T19:09:02.755Z,16.75
2018-03-01T19:11:36.905Z,16.75
2018-03-01T19:14:04.852Z,16.50
2018-03-01T19:16:32.421Z,16.50
2018-03-01T19:18:59.697Z,16.50
2018-03-01T19:21:26.781Z,16.62
2018-03-01T19:23:53.882Z,16.56
2018-03-01T19:26:20.896Z,16.69
2018-03-01T19:28:48.294Z,16.81
2018-03-01T19:31:15.342Z,16.69
2018-03-01T19:33:43.036Z,16.94
2018-03-01T19:36:10.472Z,16.75
2018-03-01T19:38:37.902Z,16.81
2018-03-01T19:41:05.027Z,16.87
2018-03-01T19:43:32.098Z,16.87
2018-03-01T19:45:59.170Z,16.81
2018-03-01T19:48:27.044Z,17.00
2018-03-01T19:50:54.102Z,17.12
2018-03-01T19:53:21.385Z,16.94
2018-03-01T19:55:48.439Z,16.94
2018-03-01T19:58:15.499Z,16.87
2018-03-01T20:00:42.550Z,16.87
2018-03-01T20:03:09.599Z,16.87
2018-03-01T20:05:36.967Z,16.75
2018-03-01T20:08:04.017Z,16.69
2018-03-01T20:10:31.067Z,16.75
2018-03-01T20:12:58.114Z,16.94
2018-03-01T20:15:25.175Z,16.94
2018-03-01T20:17:52.457Z,16.87
2018-03-01T20:20:19.514Z,16.94
2018-03-01T20:22:46.562Z,16.81
2018-03-01T20:25:13.622Z,16.75
2018-03-01T20:27:40.674Z,16.87
2018-03-01T20:30:07.958Z,16.87
2018-03-01T20:32:35.003Z,16.87
2018-03-01T20:35:02.059Z,16.87
2018-03-01T20:37:29.117Z,17.00
2018-03-01T20:39:56.163Z,17.00
2018-03-01T20:42:23.254Z,17.00
2018-03-01T20:44:50.313Z,16.94
2018-03-01T20:47:17.362Z,16.94
2018-03-01T20:49:44.416Z,16.87
2018-03-01T20:52:11.466Z,16.87
2018-03-01T20:54:38.762Z,16.94
2018-03-01T20:57:05.816Z,16.87
2018-03-01T20:59:32.862Z,16.81
2018-03-01T21:01:59.918Z,17.12
2018-03-01T21:04:26.971Z,17.19
2018-03-01T21:06:54.051Z,17.12
2018-03-01T21:09:21.112Z,17.06
2018-03-01T21:11:48.166Z,17.12
2018-03-01T21:14:15.214Z,17.00
2018-03-01T21:16:42.262Z,16.81
2018-03-01T21:19:09.501Z,16.69
2018-03-01T21:21:36.549Z,16.69
2018-03-01T21:24:03.607Z,16.62
2018-03-01T21:26:30.662Z,16.62
2018-03-01T21:28:57.702Z,16.69
2018-03-01T21:31:25.105Z,16.69
2018-03-01T21:33:52.165Z,16.56
2018-03-01T21:36:19.219Z,16.56
2018-03-01T21:38:46.280Z,16.50
2018-03-01T21:41:13.330Z,16.50
2018-03-01T21:43:40.382Z,16.37
2018-03-01T21:46:07.435Z,16.44
2018-03-01T21:48:34.494Z,16.50
2018-03-01T21:51:01.543Z,16.50
2018-03-01T21:53:29.066Z,16.50
2018-03-01T21:55:56.091Z,16.50
2018-03-01T21:58:23.138Z,16.44
2018-03-01T22:00:50.409Z,16.37
2018-03-01T22:03:17.454Z,16.37
2018-03-01T22:05:44.500Z,16.37
2018-03-01T22:08:11.752Z,16.31
2018-03-01T22:10:38.800Z,16.25
2018-03-01T22:13:05.854Z,16.31
2018-03-01T22:15:32.926Z,16.25
2018-03-01T22:17:59.978Z,16.25
2018-03-01T22:20:27.031Z,16.37
2018-03-01T22:22:54.100Z,16.50
2018-03-01T22:25:21.151Z,16.50
2018-03-01T22:27:48.366Z,16.44
2018-03-01T22:30:15.533Z,16.44
2018-03-01T22:32:42.594Z,16.50
2018-03-01T22:35:09.651Z,16.37
2018-03-01T22:37:36.698Z,16.25
2018-03-01T22:40:03.970Z,16.19
2018-03-01T22:42:31.018Z,16.25
2018-03-01T22:44:58.067Z,16.25
2018-03-01T22:47:25.118Z,16.25
2018-03-01T22:49:52.168Z,16.25
2018-03-01T22:52:19.470Z,16.19
2018-03-01T22:54:46.527Z,16.19
2018-03-01T22:57:13.583Z,16.25
2018-03-01T22:59:40.635Z,16.25
2018-03-01T23:02:07.703Z,16.50
2018-03-01T23:04:35.058Z,16.44
2018-03-01T23:07:02.107Z,16.12
2018-03-01T23:09:29.170Z,16.06
2018-03-01T23:11:56.223Z,16.00
2018-03-01T23:14:23.278Z,15.94
2018-03-01T23:16:50.475Z,15.88
2018-03-01T23:19:17.564Z,15.88
2018-03-01T23:21:44.610Z,15.81
2018-03-01T23:24:11.659Z,15.81
2018-03-01T23:26:38.706Z,15.75
2018-03-01T23:29:05.795Z,15.69
2018-03-01T23:31:32.845Z,15.63
2018-03-01T23:33:59.895Z,15.69
2018-03-01T23:36:26.941Z,15.69
2018-03-01T23:38:53.990Z,15.75
2018-03-01T23:41:21.290Z,15.75
2018-03-01T23:43:48.343Z,15.75
2018-03-01T23:46:15.394Z,15.75
2018-03-01T23:48:42.443Z,15.75
2018-03-01T23:51:09.500Z,15.69
2018-03-01T23:53:36.815Z,15.63
2018-03-01T23:56:03.874Z,15.56
2018-03-01T23:58:30.922Z,15.56
